Time;durP1;ratioP1;P1;durP2;ratioP2;P2;SDS_P1;SDS_P2;PMS_P1;PMS_P2;Temp;Humidity;BMP_temperature;BMP_pressure;BME280_temperature;BME280_humidity;BME280_pressure;Samples;Min_cycle;Max_cycle;Signal;HPM_P1;HPM_P2
2023/12/15 09:35:05;;;;;;;15.60;9.43;;;;;;;6.52;100.00;100561.97;5121951;27;21038;-83
2023/12/15 09:37:40;;;;;;;13.60;8.23;;;;;;;7.19;100.00;100567.59;5070737;28;39252;-85
2023/12/15 09:40:09;;;;;;;12.93;8.00;;;;;;;7.83;100.00;100575.81;5054162;28;41147;-84
2023/12/15 09:42:37;;;;;;;12.70;8.17;;;;;;;8.24;100.00;100580.94;5070098;28;42627;-86
2023/12/15 09:45:05;;;;;;;12.50;7.47;;;;;;;8.79;100.00;100603.28;5070836;28;41277;-84
2023/12/15 09:47:36;;;;;;;10.53;7.20;;;;;;;8.83;100.00;100565.31;5070286;28;40252;-84
2023/12/15 09:50:13;;;;;;;12.80;7.53;;;;;;;9.40;100.00;100612.09;5070779;28;40682;-85
2023/12/15 09:52:42;;;;;;;11.50;7.17;;;;;;;9.79;96.76;100635.63;5069966;28;43430;-84
2023/12/15 09:58:32;;;;;;;11.10;7.07;;;;;;;10.12;91.82;100626.63;5068919;28;39209;-83
2023/12/15 10:01:00;;;;;;;10.27;7.27;;;;;;;10.17;89.80;100643.22;5070726;28;41143;-84
2023/12/15 10:03:27;;;;;;;10.73;7.60;;;;;;;9.98;88.04;100627.06;5070553;28;42919;-84
2023/12/15 10:05:56;;;;;;;11.97;7.23;;;;;;;10.17;87.35;100663.53;5070171;28;41125;-83
2023/12/15 10:08:26;;;;;;;11.60;7.67;;;;;;;10.09;87.14;100630.25;5070175;28;39167;-83
2023/12/15 10:10:54;;;;;;;10.70;7.07;;;;;;;10.46;86.37;100665.28;5070123;28;42895;-84
2023/12/15 10:13:21;;;;;;;10.53;7.20;;;;;;;10.53;85.54;100650.91;5086497;28;44614;-84
2023/12/15 10:16:10;;;;;;;9.47;7.13;;;;;;;10.54;85.09;100618.19;5069952;28;42749;-85
2023/12/15 10:18:39;;;;;;;11.13;7.90;;;;;;;11.28;82.85;100670.34;5069565;28;39976;-88
2023/12/15 10:21:24;;;;;;;11.00;7.40;;;;;;;12.02;78.45;100658.69;5069375;28;41835;-88
2023/12/15 10:23:51;;;;;;;10.97;7.73;;;;;;;13.48;69.06;100661.28;5084842;28;41981;-88
2023/12/15 10:26:34;;;;;;;11.53;7.50;;;;;;;13.86;67.50;100718.09;5090490;28;41133;-85
2023/12/15 10:29:23;;;;;;;12.10;7.67;;;;;;;14.07;65.17;100692.28;5070031;28;39275;-83
2023/12/15 10:31:51;;;;;;;8.73;7.33;;;;;;;14.38;63.98;100681.84;5069965;28;41317;-85
2023/12/15 10:34:22;;;;;;;10.10;7.60;;;;;;;14.68;61.78;100706.19;5069929;28;42896;-84
2023/12/15 10:36:57;;;;;;;10.97;7.40;;;;;;;14.46;60.24;100710.84;5069726;28;42521;-84
2023/12/15 10:39:25;;;;;;;11.23;7.13;;;;;;;14.22;60.86;100706.66;5069919;28;40388;-85
2023/12/15 10:41:55;;;;;;;11.23;7.40;;;;;;;13.91;60.04;100713.44;5052692;28;42048;-88
2023/12/15 10:44:44;;;;;;;9.83;7.13;;;;;;;13.33;61.91;100707.25;5050573;28;41833;-87
2023/12/15 10:47:12;;;;;;;8.57;6.70;;;;;;;12.91;64.40;100707.25;5056498;28;42838;-85
2023/12/15 10:50:10;;;;;;;9.47;6.57;;;;;;;12.40;65.76;100665.97;5039022;28;39091;-87
2023/12/15 10:52:48;;;;;;;8.47;6.53;;;;;;;12.31;66.43;100684.97;5081070;27;43387;-88
2023/12/15 10:55:19;;;;;;;9.57;6.60;;;;;;;12.16;67.21;100681.13;5096956;28;41551;-88
2023/12/15 10:57:48;;;;;;;10.07;6.63;;;;;;;12.19;68.09;100698.75;5096710;27;42466;-88
2023/12/15 11:00:18;;;;;;;9.77;6.00;;;;;;;11.84;67.48;100674.44;5096355;28;38813;-87
2023/12/15 11:02:46;;;;;;;10.40;7.30;;;;;;;11.61;67.82;100660.28;5096967;28;41036;-87
2023/12/15 11:05:19;;;;;;;8.47;6.37;;;;;;;11.76;68.90;100700.38;5095556;28;44209;-88
2023/12/15 11:07:52;;;;;;;8.60;6.50;;;;;;;11.39;68.59;100653.09;5092647;28;42959;-87
2023/12/15 11:10:19;;;;;;;11.30;6.87;;;;;;;11.51;67.82;100692.44;5092189;28;38742;-88
2023/12/15 11:13:02;;;;;;;10.83;5.97;;;;;;;11.59;69.17;100716.06;5092222;28;43721;-87
2023/12/15 11:16:05;;;;;;;12.37;6.70;;;;;;;11.57;68.56;100730.31;5091888;28;42091;-87
2023/12/15 11:18:35;;;;;;;9.07;5.90;;;;;;;11.31;68.66;100710.91;5091272;28;42222;-87
2023/12/15 11:21:03;;;;;;;9.70;6.30;;;;;;;11.48;69.25;100729.72;5091665;28;38903;-88
2023/12/15 11:23:36;;;;;;;9.57;6.60;;;;;;;11.06;68.87;100657.00;5091520;28;42144;-88
2023/12/15 11:26:04;;;;;;;10.63;6.50;;;;;;;11.42;69.69;100723.75;5091398;28;41876;-88
2023/12/15 11:28:31;;;;;;;10.30;7.43;;;;;;;11.13;70.02;100683.22;5091276;28;41999;-87
2023/12/15 11:31:00;;;;;;;10.90;6.53;;;;;;;11.38;70.54;100730.97;5092320;28;39384;-88
2023/12/15 11:33:45;;;;;;;9.90;5.83;;;;;;;11.35;69.66;100722.28;5096154;28;40923;-88
2023/12/15 11:36:17;;;;;;;9.20;6.30;;;;;;;11.15;69.83;100697.31;5094624;27;45489;-88
2023/12/15 11:39:16;;;;;;;9.00;6.30;;;;;;;11.33;70.45;100718.81;5117297;27;41495;-87
2023/12/15 11:42:00;;;;;;;8.30;5.87;;;;;;;11.38;70.73;100730.09;5116959;27;39258;-88
2023/12/15 11:44:56;;;;;;;9.47;6.40;;;;;;;11.29;70.06;100727.78;5102802;28;41962;-88
2023/12/15 11:47:40;;;;;;;9.10;6.07;;;;;;;10.87;71.03;100666.53;5094018;28;41742;-87
2023/12/15 11:50:27;;;;;;;8.60;5.83;;;;;;;10.87;70.29;100693.91;5095854;28;43659;-87
2023/12/15 11:53:12;;;;;;;8.07;5.80;;;;;;;10.84;70.83;100699.31;5096362;28;40274;-88
2023/12/15 11:55:44;;;;;;;7.20;5.40;;;;;;;10.92;70.72;100723.75;5095704;27;40784;-88
2023/12/15 11:58:51;;;;;;;7.20;5.97;;;;;;;10.79;70.76;100733.91;5095712;28;41511;-87
2023/12/15 12:01:19;;;;;;;9.60;6.30;;;;;;;10.60;70.65;100714.25;5079371;28;41450;-88
2023/12/15 12:03:47;;;;;;;9.37;6.90;;;;;;;10.54;70.60;100727.69;5095527;28;39014;-87
2023/12/15 12:06:20;;;;;;;8.50;5.63;;;;;;;10.26;71.78;100685.31;5078602;28;40758;-87
2023/12/15 12:09:10;;;;;;;10.23;6.40;;;;;;;10.03;71.06;100663.97;5096006;28;41705;-88
2023/12/15 12:12:08;;;;;;;12.50;5.97;;;;;;;9.95;71.96;100666.88;5095749;28;42713;-88
2023/12/15 12:14:42;;;;;;;9.30;5.90;;;;;;;9.96;72.04;100683.63;5095504;28;39197;-88
2023/12/15 12:17:11;;;;;;;10.03;7.07;;;;;;;9.90;72.77;100681.13;5095554;28;40475;-87
2023/12/15 12:20:09;;;;;;;8.20;6.37;;;;;;;10.17;73.91;100720.00;5095316;28;42376;-87
2023/12/15 12:22:39;;;;;;;10.20;6.93;;;;;;;10.13;74.07;100715.75;5095170;28;41347;-88
2023/12/15 12:25:08;;;;;;;8.53;6.50;;;;;;;10.17;74.50;100727.06;5095109;28;39348;-88
2023/12/15 12:27:35;;;;;;;9.70;6.40;;;;;;;9.97;74.57;100688.00;5093469;28;41146;-88
2023/12/15 12:30:11;;;;;;;9.43;6.37;;;;;;;10.20;74.72;100716.44;5093127;28;42219;-88
2023/12/15 12:32:39;;;;;;;8.80;6.50;;;;;;;10.06;75.14;100693.00;5095564;28;42100;-88
2023/12/15 12:35:09;;;;;;;8.23;6.37;;;;;;;10.09;75.07;100698.22;5095507;28;39371;-88
2023/12/15 12:37:37;;;;;;;10.37;6.73;;;;;;;10.07;74.70;100713.25;5094886;28;40876;-87
2023/12/15 12:40:06;;;;;;;9.77;6.03;;;;;;;9.99;75.18;100696.75;5095251;28;43442;-87
2023/12/15 12:42:34;;;;;;;9.60;6.70;;;;;;;9.90;75.34;100678.50;5095059;28;43264;-88
2023/12/15 12:45:01;;;;;;;7.60;6.10;;;;;;;10.10;76.01;100699.94;5095319;27;38922;-85
2023/12/15 12:47:37;;;;;;;10.03;6.53;;;;;;;9.98;76.61;100684.44;5095890;28;41834;-85
2023/12/15 12:50:05;;;;;;;7.83;5.83;;;;;;;10.13;76.72;100702.50;5110599;27;44641;-83
2023/12/15 12:52:33;;;;;;;9.27;6.67;;;;;;;9.98;77.29;100673.84;5116071;27;42552;-82
2023/12/15 12:55:05;;;;;;;8.50;6.27;;;;;;;10.02;77.84;100686.06;5099207;27;41657;-82
2023/12/15 12:57:32;;;;;;;11.73;7.03;;;;;;;9.91;78.28;100667.00;5129557;27;41800;-83
2023/12/15 13:00:00;;;;;;;12.07;7.57;;;;;;;9.72;77.83;100656.13;5117313;27;41990;-82
2023/12/15 13:02:28;;;;;;;10.87;6.53;;;;;;;9.85;78.31;100691.03;5111997;28;42438;-82
2023/12/15 13:04:57;;;;;;;9.83;6.63;;;;;;;9.72;78.66;100687.88;5094454;28;39832;-83
2023/12/15 13:07:26;;;;;;;7.03;5.60;;;;;;;9.70;78.49;100702.91;5094302;27;40782;-83
2023/12/15 13:09:53;;;;;;;10.37;6.80;;;;;;;9.54;79.53;100689.25;5094388;28;44201;-84
2023/12/15 13:12:23;;;;;;;7.90;5.80;;;;;;;9.63;80.19;100694.31;5094298;28;41672;-85
2023/12/15 13:14:50;;;;;;;9.23;6.40;;;;;;;9.59;80.61;100692.66;5110935;27;39292;-85
2023/12/15 13:17:19;;;;;;;9.83;6.43;;;;;;;9.61;81.18;100695.25;5094170;28;42261;-85
2023/12/15 13:19:47;;;;;;;10.43;7.00;;;;;;;9.57;81.39;100683.03;5094148;28;41849;-82
2023/12/15 13:22:16;;;;;;;10.50;6.63;;;;;;;9.30;81.74;100655.59;5094561;28;41256;-83
2023/12/15 13:24:44;;;;;;;10.73;6.83;;;;;;;9.57;81.81;100726.22;5111140;27;41020;-84
2023/12/15 13:27:11;;;;;;;9.83;6.87;;;;;;;9.45;82.74;100715.13;5093942;28;41297;-84
2023/12/15 13:29:39;;;;;;;8.97;6.70;;;;;;;9.34;83.35;100718.06;5094240;28;41724;-84
2023/12/15 13:32:07;;;;;;;8.67;6.80;;;;;;;9.30;84.04;100716.41;5094434;28;42476;-84
2023/12/15 13:34:37;;;;;;;7.93;5.83;;;;;;;9.18;84.43;100700.88;5094200;27;39115;-85
2023/12/15 13:37:06;;;;;;;7.77;5.93;;;;;;;9.18;85.37;100714.97;5076847;28;44086;-82
2023/12/15 13:39:37;;;;;;;8.43;6.60;;;;;;;9.22;86.57;100723.69;5094559;28;42313;-85
2023/12/15 13:42:04;;;;;;;8.70;6.30;;;;;;;9.16;86.71;100723.84;5094311;28;42739;-86
2023/12/15 13:44:32;;;;;;;7.57;5.47;;;;;;;8.79;87.16;100666.69;5094266;28;39995;-82
2023/12/15 13:46:59;;;;;;;8.00;6.07;;;;;;;8.92;87.66;100689.22;5113697;27;41912;-84
2023/12/15 13:49:27;;;;;;;7.47;5.60;;;;;;;9.06;88.22;100712.66;5115392;27;41811;-82
2023/12/15 13:51:55;;;;;;;9.30;5.97;;;;;;;9.06;88.60;100717.06;5115048;27;42274;-83
2023/12/15 13:54:23;;;;;;;8.10;5.00;;;;;;;9.04;88.95;100717.09;5132112;27;38633;-84
2023/12/15 13:56:52;;;;;;;9.97;5.13;;;;;;;9.06;89.33;100725.00;5131539;27;43254;-83
2023/12/15 13:59:20;;;;;;;7.20;5.07;;;;;;;9.13;89.16;100747.75;5114952;27;42723;-83
2023/12/15 14:01:47;;;;;;;8.17;5.53;;;;;;;9.11;89.60;100744.25;5114078;27;41606;-84
